Whitestown, New York
Current Conditions -  °F | °C
As of 5:53 AM on Monday 29 Dec 2014 (Local Time) from KRME Reporting Station
Overcast Overcast  
Wind Chill: 24°   Ceiling: 3200
Heat Index: 30°   Visibility: 10mi
Dew Point: 26°   Wind: 6mph
Humidity: 85%   Direction: 280°W
Pressure: 30.15"   Gusts: NA
Location:  43.1203°N, 75.3249°W
Report Text: KRME 291053Z AUTO 28005KT 10SM OVC032 M01/M03 A3015 RMK AO2 SLP212 T10111033
Loading
Personal Weather Stations






























Interactive Weather Map New forecast layout! Learn more

10-Day Weather Forecast

Advertisements
Track Severe Weather on mobile